Latest Weather Observations for Cape Leeuwin

IDW60801

Issued at 6:05 am WST Tuesday 25 November 2014 (issued every 30 minutes, with the page automatically refreshed every 10 minutes)

About weather observations | Map of weather stations | Latest weather observations for WA | Other Formats
Station Details ID: 009518 Name: CAPE LEEUWIN Lat: -34.37 Lon: 115.14 Height: 13.0 m
Data from the previous 72 hours. | See also: Recent months at Cape Leeuwin
Date/Time
WST
Temp
°C
App
Temp
°C
Dew
Point
Rel
Hum
%
Delta-T
°C
Wind Press
QNH
hPa
Press
MSL
hPa
Rain
since 9 am
mm
Dir
 
Spd
km/h
Gust
km/h
Spd
kts
Gust
kts
25/06:00am 15.1 10.1 15.1 100 0.0 E 35 41 19 22 1022.0 1022.0 0.0
25/05:30am 15.0 9.9 14.8 99 0.1 E 35 39 19 21 1021.9 1021.9 0.0
25/05:00am 14.9 9.8 14.9 100 0.0 E 35 44 19 24 1021.7 1021.7 0.0
25/04:30am 15.0 9.9 14.8 99 0.1 E 35 41 19 22 1021.7 1021.7 0.0
25/04:00am 15.1 9.4 15.1 100 0.0 E 39 44 21 24 1021.6 1021.6 0.0
25/03:30am 15.3 8.9 15.3 100 0.0 E 43 46 23 25 1021.6 1021.6 0.0
25/03:00am 15.6 8.7 15.6 100 0.0 E 46 52 25 28 1021.7 1021.7 0.0
25/02:30am 15.7 9.2 15.7 100 0.0 E 44 50 24 27 1021.8 1021.8 0.0
25/02:00am 15.7 9.2 15.7 100 0.0 ESE 44 52 24 28 1021.9 1021.9 0.0
25/01:30am 15.7 9.2 15.7 100 0.0 ESE 44 54 24 29 1022.1 1022.1 0.0
25/01:00am 15.8 9.9 15.8 100 0.0 ESE 41 48 22 26 1022.5 1022.5 0.0
25/12:30am 15.9 9.7 15.9 100 0.0 ESE 43 50 23 27 1022.7 1022.7 0.0
25/12:00am 16.1 10.0 16.1 100 0.0 ESE 43 48 23 26 1022.8 1022.8 0.0
 
Date/Time
WST
Temp
°C
App
Temp
°C
Dew
Point
Rel
Hum
%
Delta-T
°C
Wind Press
QNH
hPa
Press
MSL
hPa
Rain
since 9 am
mm
Dir
 
Spd
km/h
Gust
km/h
Spd
kts
Gust
kts
24/11:30pm 16.0 10.2 16.0 100 0.0 ESE 41 46 22 25 1023.0 1023.0 0.0
24/11:00pm 16.1 10.0 16.1 100 0.0 ESE 43 48 23 26 1023.1 1023.1 0.0
24/10:30pm 16.4 11.1 16.4 100 0.0 ESE 39 46 21 25 1023.2 1023.2 0.0
24/10:00pm 16.2 11.2 16.2 100 0.0 ESE 37 48 20 26 1023.4 1023.4 0.0
24/09:30pm 16.2 10.9 16.2 100 0.0 SE 39 46 21 25 1023.4 1023.4 0.0
24/09:00pm 16.2 11.2 16.2 100 0.0 SE 37 44 20 24 1023.2 1023.2 0.0
24/08:30pm 16.1 11.5 16.1 100 0.0 SE 35 43 19 23 1023.3 1023.3 0.0
24/08:00pm 16.1 11.5 16.1 100 0.0 SE 35 44 19 24 1023.3 1023.3 0.0
24/07:30pm 15.9 11.2 15.9 100 0.0 SE 35 44 19 24 1023.0 1023.0 0.0
24/07:00pm 15.9 11.6 15.9 100 0.0 SE 33 41 18 22 1023.0 1023.0 0.0
24/06:30pm 15.9 11.8 15.9 100 0.0 SE 32 39 17 21 1022.9 1022.9 0.0
24/06:00pm 16.2 12.2 16.2 100 0.0 SSE 32 41 17 22 1022.7 1022.7 0.0
24/05:30pm 16.1 12.1 16.1 100 0.0 SSE 32 41 17 22 1022.7 1022.7 0.0
24/05:00pm 17.0 13.7 17.0 100 0.0 SSE 30 39 16 21 1022.7 1022.7 0.0
24/04:30pm 17.2 14.7 17.2 100 0.0 SSE 26 35 14 19 1022.8 1022.8 0.0
24/04:00pm 17.2 15.1 17.2 100 0.0 SSE 24 35 13 19 1023.0 1023.0 0.0
24/03:30pm 18.5 16.8 18.2 98 0.2 S 24 30 13 16 1023.1 1023.1 0.0
24/03:00pm 18.5 16.9 18.3 99 0.1 S 24 35 13 19 1023.1 1023.1 0.0
24/02:30pm 18.6 16.6 18.3 98 0.2 SSE 26 33 14 18 1023.0 1023.0 0.0
24/02:00pm 19.2 17.5 19.0 99 0.1 SSE 26 35 14 19 1023.1 1023.1 0.0
24/01:30pm 18.9 17.5 18.7 99 0.1 SSE 24 33 13 18 1023.2 1023.2 0.0
24/01:00pm 20.1 18.2 16.6 80 2.1 SSE 22 30 12 16 1023.3 1023.3 0.0
24/12:30pm 19.6 15.1 8.6 49 5.7 SSE 22 30 12 16 1023.4 1023.4 0.0
24/12:00pm 19.0 14.5 7.0 45 6.0 SE 20 28 11 15 1023.5 1023.5 0.0
24/11:30am 17.7 13.4 7.0 49 5.3 SE 19 26 10 14 1023.7 1023.7 0.0
24/11:00am 17.7 13.2 6.3 47 5.6 SE 19 26 10 14 1023.8 1023.8 0.0
24/10:30am 18.2 13.8 6.7 47 5.7 SE 19 26 10 14 1023.9 1023.9 0.0
24/10:00am 18.0 13.7 6.9 48 5.5 ESE 19 24 10 13 1024.1 1024.1 0.0
24/09:30am 16.4 12.3 6.0 50 5.0 SE 17 24 9 13 1024.2 1024.2 0.0
24/09:00am 16.3 12.6 6.2 51 4.9 ESE 15 20 8 11 1024.3 1024.3 0.0
24/08:30am 15.7 11.9 5.9 52 4.7 SE 15 20 8 11 1024.5 1024.5 0.0
24/08:00am 15.6 11.7 5.5 51 4.8 ESE 15 20 8 11 1024.4 1024.4 0.0
24/07:30am 15.0 10.9 6.0 55 4.3 ESE 17 24 9 13 1024.2 1024.2 0.0
24/07:00am 15.0 10.8 5.5 53 4.5 SE 17 24 9 13 1024.0 1024.0 0.0
24/06:30am 14.7 10.4 5.1 52 4.5 SE 17 22 9 12 1023.8 1023.8 0.0
24/06:00am 14.4 9.8 5.5 55 4.2 SE 19 26 10 14 1023.6 1023.6 0.0
24/05:30am 14.2 9.6 5.7 56 4.0 SSE 19 26 10 14 1023.5 1023.5 0.0
24/05:00am 14.2 10.0 5.7 56 4.0 S 17 24 9 13 1023.1 1023.1 0.0
24/04:30am 14.1 10.6 5.6 56 4.0 S 13 15 7 8 1023.0 1023.0 0.0
24/04:00am 14.2 9.4 5.5 56 4.1 SE 20 30 11 16 1022.8 1022.8 0.0
24/03:30am 14.1 9.6 5.9 57 3.9 SE 19 28 10 15 1022.6 1022.6 0.0
24/03:00am 13.9 10.1 5.9 58 3.8 SSE 15 22 8 12 1022.7 1022.7 0.0
24/02:30am 13.8 9.6 5.5 57 3.9 SSE 17 28 9 15 1022.5 1022.5 0.0
24/02:00am 14.1 8.9 5.6 56 4.0 SSE 22 30 12 16 1022.6 1022.6 0.0
24/01:30am 13.6 8.8 4.4 53 4.2 SSE 19 26 10 14 1022.6 1022.6 0.0
24/01:00am 13.8 9.4 4.9 55 4.1 S 17 30 9 16 1022.6 1022.6 0.0
24/12:30am 14.0 9.3 5.2 55 4.1 SSE 19 26 10 14 1022.6 1022.6 0.0
24/12:00am 13.7 9.0 5.1 56 4.0 S 19 26 10 14 1022.8 1022.8 0.0
 
Date/Time
WST
Temp
°C
App
Temp
°C
Dew
Point
Rel
Hum
%
Delta-T
°C
Wind Press
QNH
hPa
Press
MSL
hPa
Rain
since 9 am
mm
Dir
 
Spd
km/h
Gust
km/h
Spd
kts
Gust
kts
23/11:30pm 14.0 8.6 4.7 53 4.3 S 22 28 12 15 1022.8 1022.8 0.0
23/11:00pm 14.3 9.1 5.6 56 4.1 S 22 30 12 16 1022.9 1022.9 0.0
23/10:30pm 14.4 9.7 6.0 57 4.0 S 20 32 11 17 1022.8 1022.8 0.0
23/10:00pm 14.2 9.4 5.5 56 4.1 S 20 30 11 16 1022.8 1022.8 0.0
23/09:30pm 14.4 9.1 5.2 54 4.3 S 22 33 12 18 1022.6 1022.6 0.0
23/09:00pm 14.0 8.7 4.9 54 4.2 SSW 22 32 12 17 1022.5 1022.5 0.0
23/08:30pm 14.2 8.5 4.9 53 4.3 S 24 32 13 17 1022.1 1022.1 0.0
23/08:00pm 14.7 8.9 6.4 57 4.0 S 26 35 14 19 1021.9 1021.9 0.0
23/07:30pm 14.3 8.3 5.1 54 4.3 SSW 26 32 14 17 1021.8 1021.8 0.0
23/07:00pm 14.6 9.1 6.0 56 4.1 S 24 32 13 17 1021.4 1021.4 0.0
23/06:30pm 14.9 9.4 6.1 55 4.2 S 24 33 13 18 1021.0 1021.0 0.0
23/06:00pm 15.2 10.5 6.0 54 4.4 S 20 30 11 16 1020.6 1020.6 0.0
23/05:30pm 15.3 10.2 6.2 54 4.4 S 22 30 12 16 1020.2 1020.2 0.0
23/05:00pm 16.3 11.0 6.7 53 4.7 S 24 33 13 18 1019.9 1019.9 0.0
23/04:30pm 16.1 11.1 6.4 52 4.7 SSW 22 33 12 18 1019.8 1019.8 0.0
23/04:00pm 17.1 12.3 7.3 52 4.9 S 22 30 12 16 1019.6 1019.6 0.0
23/03:30pm 17.6 12.7 6.9 49 5.3 S 22 33 12 18 1019.4 1019.4 0.0
23/03:00pm 17.1 11.7 6.3 49 5.3 SSW 24 33 13 18 1019.7 1019.7 0.0
23/02:30pm 18.0 13.1 6.7 47 5.6 S 22 32 12 17 1019.4 1019.4 0.0
23/02:00pm 18.6 13.3 7.0 46 5.8 S 24 32 13 17 1019.4 1019.4 0.0
23/01:30pm 17.2 12.5 7.7 53 4.8 S 22 30 12 16 1019.2 1019.2 0.0
23/01:00pm 18.0 13.4 8.2 52 5.0 S 22 32 12 17 1018.9 1018.9 0.0
23/12:30pm 17.3 12.2 7.8 53 4.8 S 24 33 13 18 1018.8 1018.8 0.0
23/12:00pm 16.8 11.5 8.3 57 4.3 SSW 26 33 14 18 1018.7 1018.7 0.0
23/11:30am 17.5 12.0 5.8 46 5.7 SSW 24 33 13 18 1018.5 1018.5 0.0
23/11:00am 17.8 11.8 5.4 44 6.0 SSW 26 33 14 18 1018.5 1018.5 0.0
23/10:30am 17.4 10.3 5.3 45 5.8 SW 32 39 17 21 1018.4 1018.4 0.0
23/10:00am 17.3 10.9 6.8 50 5.2 SW 30 39 16 21 1018.1 1018.1 0.0
23/09:30am 17.1 10.9 7.8 54 4.7 SSW 30 43 16 23 1017.9 1017.9 0.0
23/09:00am 17.6 11.7 7.7 52 5.0 SW 28 35 15 19 1017.6 1017.6 0.4
23/08:30am 16.2 9.3 7.3 55 4.4 SW 33 41 18 22 1017.6 1017.6 0.4
23/08:00am 16.6 9.3 7.1 53 4.7 SW 35 43 19 23 1017.2 1017.2 0.4
23/07:30am 16.1 8.9 7.7 57 4.2 SW 35 43 19 23 1016.9 1016.9 0.4
23/07:00am 16.0 9.0 8.5 61 3.8 SW 35 44 19 24 1016.4 1016.4 0.4
23/06:30am 16.5 7.4 5.7 49 5.2 SW 43 54 23 29 1015.9 1015.9 0.4
23/06:00am 16.1 7.5 8.0 58 4.1 SW 43 54 23 29 1015.5 1015.5 0.4
23/05:30am 15.9 7.2 7.7 58 4.1 SW 43 54 23 29 1015.1 1015.1 0.4
23/05:00am 16.0 7.4 8.8 62 3.7 SW 44 56 24 30 1014.5 1014.5 0.4
23/04:30am 16.0 7.6 9.0 63 3.6 SW 43 54 23 29 1014.2 1014.2 0.4
23/04:00am 14.9 7.8 10.9 77 2.1 SW 39 48 21 26 1014.0 1014.0 0.4
23/03:30am 15.3 7.3 11.2 76 2.2 WSW 44 56 24 30 1013.6 1013.6 0.4
23/03:08am 15.7 9.2 13.0 84 1.5 W 39 59 21 32 1013.4 1013.4 0.0
23/03:00am 16.3 9.1 11.9 75 2.4 W 41 50 22 27 1013.3 1013.3 0.0
23/02:30am 15.6 8.5 10.9 73 2.5 W 39 48 21 26 1013.4 1013.4 0.0
23/02:00am 15.2 5.8 12.8 85 1.3 WSW 54 67 29 36 1013.4 1013.4 0.0
23/01:30am 17.0 8.6 9.5 61 3.9 W 44 50 24 27 1013.4 1013.4 0.0
23/01:00am 17.0 9.6 11.1 68 3.2 W 41 48 22 26 1013.6 1013.6 0.0
23/12:30am 16.6 8.1 9.3 62 3.8 W 44 56 24 30 1013.7 1013.7 0.0
23/12:00am 15.8 7.4 10.9 72 2.6 W 46 56 25 30 1014.0 1014.0 0.0
 
Date/Time
WST
Temp
°C
App
Temp
°C
Dew
Point
Rel
Hum
%
Delta-T
°C
Wind Press
QNH
hPa
Press
MSL
hPa
Rain
since 9 am
mm
Dir
 
Spd
km/h
Gust
km/h
Spd
kts
Gust
kts
22/11:30pm 17.0 9.0 10.6 66 3.4 W 43 50 23 27 1014.0 1014.0 0.0
22/11:00pm 16.4 9.3 11.0 70 2.9 W 39 46 21 25 1014.1 1014.1 0.0
22/10:30pm 16.8 8.2 10.4 66 3.4 WSW 46 56 25 30 1014.4 1014.4 0.0
22/10:00pm 16.4 8.0 11.2 71 2.8 WSW 46 56 25 30 1014.5 1014.5 0.0
22/09:30pm 16.6 9.8 10.6 67 3.2 W 37 44 20 24 1014.6 1014.6 0.0
22/09:00pm 17.0 9.1 9.5 61 3.9 W 41 50 22 27 1014.5 1014.5 0.0
22/08:30pm 17.0 7.4 8.1 55 4.5 W 48 57 26 31 1014.3 1014.3 0.0
22/08:00pm 16.1 7.9 9.6 65 3.4 W 43 52 23 28 1014.4 1014.4 0.0
22/07:30pm 16.8 9.0 9.7 63 3.7 W 41 50 22 27 1014.2 1014.2 0.0
22/07:00pm 16.9 9.2 10.3 65 3.5 W 41 52 22 28 1014.2 1014.2 0.0
22/06:30pm 16.9 9.9 9.9 63 3.7 W 37 44 20 24 1014.0 1014.0 0.0
22/06:00pm 17.2 10.5 9.6 61 4.0 W 35 41 19 22 1013.8 1013.8 0.0
22/05:30pm 17.2 9.9 8.9 58 4.3 W 37 44 20 24 1013.5 1013.5 0.0
22/05:00pm 17.1 9.9 9.2 59 4.1 W 37 44 20 24 1013.6 1013.6 0.0
22/04:30pm 17.2 10.0 9.3 59 4.1 W 37 43 20 23 1013.8 1013.8 0.0
22/04:00pm 17.6 10.9 9.8 60 4.1 W 35 41 19 22 1013.6 1013.6 0.0
22/03:30pm 17.7 11.5 9.5 58 4.3 W 32 37 17 20 1013.7 1013.7 0.0
22/03:00pm 18.7 13.1 8.9 53 5.1 W 28 33 15 18 1013.8 1013.8 0.0
22/02:30pm 19.0 13.9 9.1 52 5.2 W 26 32 14 17 1013.9 1013.9 0.0
22/02:00pm 18.5 11.8 7.4 48 5.6 W 32 37 17 20 1014.0 1014.0 0.0
22/01:30pm 18.6 12.5 8.1 50 5.4 W 30 37 16 20 1013.9 1013.9 0.0
22/01:00pm 18.7 13.1 8.7 52 5.2 WSW 28 35 15 19 1014.0 1014.0 0.0
22/12:30pm 18.5 12.8 8.4 51 5.2 W 28 37 15 20 1014.1 1014.1 0.0
22/12:00pm 18.7 13.1 8.9 53 5.1 WSW 28 33 15 18 1014.1 1014.1 0.0
22/11:30am 17.5 12.0 9.0 57 4.4 WSW 28 33 15 18 1014.2 1014.2 0.0
22/11:00am 18.0 13.3 9.4 57 4.5 WSW 24 32 13 17 1014.0 1014.0 0.0
22/10:30am 18.6 13.8 8.8 53 5.1 WSW 24 32 13 17 1013.9 1013.9 0.0
22/10:00am 18.0 13.5 8.7 54 4.8 WSW 22 30 12 16 1013.9 1013.9 0.0
22/09:30am 17.5 12.2 8.3 54 4.7 SW 26 33 14 18 1013.9 1013.9 0.0
22/09:00am 17.1 11.5 8.7 57 4.3 SW 28 37 15 20 1013.8 1013.8 2.6
22/08:30am 16.8 11.6 10.2 65 3.5 SW 28 35 15 19 1013.8 1013.8 2.6
22/08:00am 16.2 10.7 10.5 69 3.0 SW 30 35 16 19 1013.5 1013.5 2.6
22/07:30am 15.1 9.0 11.8 81 1.8 SW 35 46 19 25 1013.3 1013.3 2.6
22/07:00am 15.3 9.8 11.8 79 1.9 SW 32 41 17 22 1013.1 1013.1 2.6
22/06:30am 14.7 10.4 13.1 90 0.9 SW 28 35 15 19 1012.9 1012.9 1.8

Other Formats:

Comma delimited format used in spreadsheet applications
http://www.bom.gov.au/fwo/IDW60801/IDW60801.94601.axf

JavaScript Object Notation format (JSON) in row-major order
http://www.bom.gov.au/fwo/IDW60801/IDW60801.94601.json